Time;durP1;ratioP1;P1;durP2;ratioP2;P2;SDS_P1;SDS_P2;PMS_P1;PMS_P2;Temp;Humidity;BMP_temperature;BMP_pressure;BME280_temperature;BME280_humidity;BME280_pressure;Samples;Min_cycle;Max_cycle;Signal;HPM_P1;HPM_P2
2021/06/03 00:00:38;;;;;;;12.27;9.65;;;18.60;99.90;;;;;;5114143;28;20107;-61
2021/06/03 00:03:05;;;;;;;11.45;9.27;;;18.60;99.90;;;;;;5114430;28;20043;-61
2021/06/03 00:05:39;;;;;;;11.43;9.68;;;18.60;99.90;;;;;;5114237;28;20043;-61
2021/06/03 00:08:06;;;;;;;12.82;10.20;;;18.60;99.90;;;;;;5114290;28;20043;-62
2021/06/03 00:10:35;;;;;;;13.02;9.57;;;18.60;99.90;;;;;;5114377;28;20118;-61
2021/06/03 00:13:03;;;;;;;12.13;10.30;;;18.50;99.90;;;;;;5114158;28;20515;-61
2021/06/03 00:15:29;;;;;;;11.32;9.30;;;18.50;99.90;;;;;;5113773;28;20485;-61
2021/06/03 00:17:55;;;;;;;15.25;10.52;;;18.50;99.90;;;;;;5113131;28;20078;-61
2021/06/03 00:20:24;;;;;;;12.95;9.90;;;18.40;99.90;;;;;;5114129;28;20039;-61
2021/06/03 00:22:50;;;;;;;13.48;10.40;;;18.40;99.90;;;;;;5113806;28;20123;-61
2021/06/03 00:25:16;;;;;;;13.57;9.95;;;18.30;99.90;;;;;;5114048;28;20058;-61
2021/06/03 00:27:42;;;;;;;16.45;10.63;;;18.40;99.90;;;;;;5114154;28;20487;-61
2021/06/03 00:30:09;;;;;;;12.55;10.27;;;18.30;99.90;;;;;;5113932;28;20068;-61
2021/06/03 00:32:35;;;;;;;13.50;9.75;;;18.30;99.90;;;;;;5113900;28;20174;-61
2021/06/03 00:35:01;;;;;;;16.00;10.35;;;18.30;99.90;;;;;;5113545;28;20485;-60
2021/06/03 00:37:27;;;;;;;14.35;9.95;;;18.20;99.90;;;;;;5113422;28;20063;-61
2021/06/03 00:39:53;;;;;;;12.57;9.65;;;18.20;99.90;;;;;;5113463;28;20044;-61
2021/06/03 00:42:20;;;;;;;15.32;11.43;;;18.20;99.90;;;;;;5113528;28;20378;-60
2021/06/03 00:44:46;;;;;;;12.55;9.68;;;18.20;99.90;;;;;;5113214;28;20047;-61
2021/06/03 00:47:12;;;;;;;20.05;11.27;;;18.20;99.90;;;;;;5113315;28;20047;-61
2021/06/03 00:49:38;;;;;;;14.48;10.68;;;18.20;99.90;;;;;;5113459;28;20134;-60
2021/06/03 00:52:04;;;;;;;15.40;9.95;;;18.10;99.90;;;;;;5113112;28;20131;-61
2021/06/03 00:54:30;;;;;;;15.70;10.25;;;18.10;99.90;;;;;;5113286;28;20046;-61
2021/06/03 00:56:55;;;;;;;12.88;10.20;;;18.10;99.90;;;;;;5113399;28;20043;-61
2021/06/03 00:59:21;;;;;;;14.02;10.13;;;18.10;99.90;;;;;;5113024;28;20039;-61
2021/06/03 01:01:47;;;;;;;13.32;9.20;;;18.20;99.90;;;;;;5113117;28;20062;-61
2021/06/03 01:04:17;;;;;;;15.32;10.43;;;18.10;99.90;;;;;;5113046;28;20488;-60
2021/06/03 01:06:43;;;;;;;16.30;10.32;;;18.10;99.90;;;;;;5113019;28;20071;-61
2021/06/03 01:09:22;;;;;;;13.18;9.93;;;18.10;99.90;;;;;;5113051;28;20051;-61
2021/06/03 01:11:51;;;;;;;11.75;9.57;;;18.10;99.90;;;;;;5113392;28;20078;-61
2021/06/03 01:14:23;;;;;;;;;;;18.10;99.90;;;;;;5113198;28;20559;-61
2021/06/03 01:16:51;;;;;;;13.18;10.70;;;18.20;99.90;;;;;;5113063;28;19922;-60
2021/06/03 01:19:24;;;;;;;15.60;10.13;;;18.20;99.90;;;;;;5112715;28;20039;-60
2021/06/03 01:22:01;;;;;;;11.77;9.07;;;18.20;99.90;;;;;;5112710;28;20039;-60
2021/06/03 01:24:38;;;;;;;12.98;9.93;;;18.20;99.90;;;;;;5112767;28;20447;-61
2021/06/03 01:27:07;;;;;;;13.45;9.52;;;18.20;99.90;;;;;;5112602;28;20047;-61
2021/06/03 01:29:58;;;;;;;13.98;9.30;;;18.20;99.90;;;;;;5112337;28;20043;-60
2021/06/03 01:32:26;;;;;;;17.27;10.45;;;18.20;99.90;;;;;;5112679;28;20040;-60
2021/06/03 01:34:53;;;;;;;13.30;9.70;;;18.20;99.90;;;;;;5112367;28;20035;-61
2021/06/03 01:37:19;;;;;;;11.10;10.00;;;18.20;99.90;;;;;;5112631;28;20047;-61
2021/06/03 01:39:46;;;;;;;13.63;9.07;;;18.20;99.90;;;;;;5112477;28;20074;-61
2021/06/03 01:42:14;;;;;;;11.73;9.05;;;18.20;99.90;;;;;;5112393;28;20062;-61
2021/06/03 01:44:41;;;;;;;;;;;18.20;99.90;;;;;;5112907;28;20044;-61
2021/06/03 01:47:08;;;;;;;19.15;10.10;;;18.20;99.90;;;;;;5112465;28;19920;-61
2021/06/03 01:49:34;;;;;;;12.55;9.55;;;18.20;99.90;;;;;;5112388;28;20508;-60
2021/06/03 01:52:02;;;;;;;10.18;8.65;;;18.20;99.90;;;;;;5112250;28;20043;-60
2021/06/03 01:54:29;;;;;;;9.70;8.73;;;18.20;99.90;;;;;;5112161;28;20051;-61
2021/06/03 01:56:55;;;;;;;10.75;9.63;;;18.20;99.90;;;;;;5112397;28;20047;-61
2021/06/03 01:59:21;;;;;;;11.65;8.77;;;18.20;99.90;;;;;;5112055;28;20045;-61
2021/06/03 02:01:48;;;;;;;10.68;9.52;;;18.20;99.90;;;;;;5112103;28;20477;-61
2021/06/03 02:04:14;;;;;;;10.15;9.15;;;18.10;99.90;;;;;;5112139;28;20043;-61
2021/06/03 02:06:42;;;;;;;10.07;8.57;;;18.20;99.90;;;;;;5112090;28;20104;-61
2021/06/03 02:09:09;;;;;;;14.93;9.18;;;18.10;99.90;;;;;;5112078;28;20043;-61
2021/06/03 02:11:39;;;;;;;12.15;8.80;;;18.10;99.90;;;;;;5112023;28;20092;-61
2021/06/03 02:14:09;;;;;;;10.90;8.75;;;18.10;99.90;;;;;;5112425;28;20031;-60
2021/06/03 02:16:39;;;;;;;12.65;9.05;;;18.10;99.90;;;;;;5112278;28;20055;-61
2021/06/03 02:19:22;;;;;;;13.73;8.63;;;18.00;99.90;;;;;;5112011;28;20081;-61
2021/06/03 02:21:49;;;;;;;10.07;8.77;;;18.00;99.90;;;;;;5112123;28;20044;-60
2021/06/03 02:24:15;;;;;;;13.90;9.10;;;18.00;99.90;;;;;;5112409;28;20055;-60
2021/06/03 02:26:44;;;;;;;12.35;9.68;;;18.00;99.90;;;;;;5111901;28;20066;-61
2021/06/03 02:29:11;;;;;;;11.98;9.07;;;18.00;99.90;;;;;;5112109;28;20446;-61
2021/06/03 02:31:38;;;;;;;17.27;8.63;;;18.00;99.90;;;;;;5093772;28;20040;-61
2021/06/03 02:34:05;;;;;;;10.20;8.93;;;17.90;99.90;;;;;;5111826;28;20067;-60
2021/06/03 02:36:31;;;;;;;13.45;8.30;;;18.00;99.90;;;;;;5111947;28;20039;-61
2021/06/03 02:38:57;;;;;;;10.25;8.00;;;17.90;99.90;;;;;;5112015;28;20040;-60
2021/06/03 02:41:25;;;;;;;12.45;8.50;;;17.90;99.90;;;;;;5115350;28;20043;-60
2021/06/03 02:43:51;;;;;;;12.32;8.95;;;17.80;99.90;;;;;;5116004;28;20047;-60
2021/06/03 02:46:20;;;;;;;11.98;8.95;;;17.90;99.90;;;;;;5116049;28;20066;-60
2021/06/03 02:48:46;;;;;;;13.05;9.00;;;17.80;99.90;;;;;;5115671;28;20108;-60
2021/06/03 02:51:12;;;;;;;11.38;9.20;;;17.80;99.90;;;;;;5115929;28;20500;-60
2021/06/03 02:53:39;;;;;;;11.25;9.50;;;17.80;99.90;;;;;;5115668;28;20546;-61
2021/06/03 02:56:05;;;;;;;11.52;9.00;;;17.70;99.90;;;;;;5115655;28;20047;-60
2021/06/03 02:58:31;;;;;;;11.43;9.00;;;17.70;99.90;;;;;;5115481;28;20044;-60
2021/06/03 03:00:57;;;;;;;11.95;9.02;;;17.70;99.90;;;;;;5115406;28;20066;-60
2021/06/03 03:03:25;;;;;;;12.63;9.15;;;17.70;99.90;;;;;;5115324;28;20101;-60
2021/06/03 03:05:51;;;;;;;14.18;9.45;;;17.70;99.90;;;;;;5115347;28;20047;-60
2021/06/03 03:08:17;;;;;;;12.25;8.77;;;17.60;99.90;;;;;;5115504;28;20134;-60
2021/06/03 03:10:46;;;;;;;10.48;9.38;;;17.60;99.90;;;;;;5115212;28;20050;-60
2021/06/03 03:13:16;;;;;;;9.90;8.48;;;17.50;99.90;;;;;;5115396;28;20048;-60
2021/06/03 03:15:43;;;;;;;14.13;9.35;;;17.50;99.90;;;;;;5115117;28;20047;-60
2021/06/03 03:18:09;;;;;;;9.63;8.63;;;17.50;99.90;;;;;;5115409;28;20051;-60
2021/06/03 03:20:36;;;;;;;11.60;8.63;;;17.50;99.90;;;;;;5115395;28;20036;-60
2021/06/03 03:23:04;;;;;;;11.52;8.55;;;17.50;99.90;;;;;;5115487;28;20040;-61
2021/06/03 03:25:32;;;;;;;9.30;8.05;;;17.50;99.90;;;;;;5115170;28;20048;-61
2021/06/03 03:27:58;;;;;;;11.50;8.60;;;17.50;99.90;;;;;;5115042;28;20058;-61
2021/06/03 03:30:25;;;;;;;10.85;8.52;;;17.50;99.90;;;;;;5115012;28;20048;-60
2021/06/03 03:32:51;;;;;;;8.77;7.47;;;17.50;99.90;;;;;;5115391;28;20494;-60
2021/06/03 03:35:18;;;;;;;10.75;8.30;;;17.60;99.90;;;;;;5115018;28;20365;-60
2021/06/03 03:37:45;;;;;;;8.90;8.02;;;17.50;99.90;;;;;;5115062;28;20048;-60
2021/06/03 03:40:14;;;;;;;11.93;8.57;;;17.50;99.90;;;;;;5115067;28;20057;-60
2021/06/03 03:42:40;;;;;;;9.13;8.23;;;17.60;99.90;;;;;;5096511;28;20044;-60
2021/06/03 03:45:08;;;;;;;11.07;8.25;;;17.60;99.90;;;;;;5114852;28;20047;-60
2021/06/03 03:47:35;;;;;;;11.10;9.25;;;17.60;99.90;;;;;;5114630;28;20047;-60
2021/06/03 03:50:00;;;;;;;9.30;8.18;;;17.60;99.90;;;;;;5114776;28;20048;-60
2021/06/03 03:52:30;;;;;;;10.45;8.02;;;17.60;99.90;;;;;;5114059;28;20047;-60
2021/06/03 03:54:56;;;;;;;9.32;7.60;;;17.60;99.90;;;;;;5114483;28;20050;-60
2021/06/03 03:57:24;;;;;;;10.02;8.55;;;17.60;99.90;;;;;;5114527;28;20071;-59
2021/06/03 03:59:50;;;;;;;10.98;8.63;;;17.60;99.90;;;;;;5114475;28;20044;-60
2021/06/03 04:02:16;;;;;;;14.50;8.73;;;17.60;99.90;;;;;;5114498;28;20473;-60
2021/06/03 04:04:42;;;;;;;9.77;8.35;;;17.60;99.90;;;;;;5114539;28;20051;-60
2021/06/03 04:07:12;;;;;;;11.45;8.02;;;17.60;99.90;;;;;;5114271;28;20129;-60
2021/06/03 04:09:38;;;;;;;9.15;7.90;;;17.60;99.90;;;;;;5113973;28;20050;-60
2021/06/03 04:12:04;;;;;;;12.55;8.25;;;17.60;99.90;;;;;;5114233;28;20051;-60
2021/06/03 04:14:30;;;;;;;10.98;8.60;;;17.60;99.90;;;;;;5114169;28;20452;-60
2021/06/03 04:16:56;;;;;;;10.55;8.50;;;17.70;99.90;;;;;;5113359;28;20043;-59
2021/06/03 04:19:22;;;;;;;9.70;7.80;;;17.70;99.90;;;;;;5113935;28;20044;-60
2021/06/03 04:21:50;;;;;;;13.25;8.38;;;17.80;99.90;;;;;;5113809;28;20040;-60
2021/06/03 04:24:16;;;;;;;14.00;8.45;;;17.90;99.90;;;;;;5113715;28;20496;-60
2021/06/03 04:26:42;;;;;;;10.43;8.30;;;17.80;99.90;;;;;;5095586;28;20067;-60
2021/06/03 04:29:09;;;;;;;10.52;7.80;;;17.90;99.90;;;;;;5113842;28;20071;-60
2021/06/03 04:31:34;;;;;;;14.55;7.90;;;18.00;99.90;;;;;;5113938;28;20039;-60
2021/06/03 04:34:00;;;;;;;10.10;8.07;;;17.90;99.90;;;;;;5113697;28;20502;-60
2021/06/03 04:36:26;;;;;;;11.23;7.95;;;18.10;99.90;;;;;;5113633;28;20036;-60
2021/06/03 04:38:52;;;;;;;9.02;7.53;;;18.10;99.90;;;;;;5113586;28;20040;-59
2021/06/03 04:41:18;;;;;;;9.80;7.93;;;18.10;99.90;;;;;;5113545;28;20035;-60
2021/06/03 04:43:43;;;;;;;10.15;7.47;;;18.20;99.90;;;;;;5113614;28;20040;-59
2021/06/03 04:46:11;;;;;;;10.90;7.68;;;18.20;99.90;;;;;;5113383;28;20043;-60
2021/06/03 04:48:37;;;;;;;10.05;8.43;;;18.30;99.90;;;;;;5113379;28;20416;-59
2021/06/03 04:51:04;;;;;;;9.77;7.32;;;18.30;99.90;;;;;;5113130;28;20051;-59
2021/06/03 04:53:32;;;;;;;10.13;7.47;;;18.30;99.90;;;;;;5113204;28;20043;-60
2021/06/03 04:55:58;;;;;;;10.90;7.20;;;18.30;99.90;;;;;;5113174;28;20116;-60
2021/06/03 04:58:26;;;;;;;13.40;7.72;;;18.40;99.90;;;;;;5113247;28;20043;-59
2021/06/03 05:00:53;;;;;;;7.87;6.87;;;18.40;99.90;;;;;;5113042;28;20071;-60
2021/06/03 05:03:18;;;;;;;8.23;6.60;;;18.50;99.90;;;;;;5112596;28;20334;-59
2021/06/03 05:05:44;;;;;;;8.75;6.63;;;18.50;99.90;;;;;;5112978;28;20047;-59
2021/06/03 05:08:10;;;;;;;8.15;6.65;;;18.50;99.90;;;;;;5112973;28;20047;-59
2021/06/03 05:10:36;;;;;;;8.23;6.68;;;18.60;99.90;;;;;;5112999;28;20040;-60
2021/06/03 05:13:02;;;;;;;9.45;6.47;;;18.60;99.90;;;;;;5112657;28;20036;-60
2021/06/03 05:15:28;;;;;;;8.80;5.95;;;18.70;99.90;;;;;;5112968;28;20039;-59
2021/06/03 05:17:55;;;;;;;8.40;6.53;;;18.70;99.90;;;;;;5112884;28;20485;-60
2021/06/03 05:20:23;;;;;;;9.48;6.20;;;18.70;99.90;;;;;;5112601;28;20382;-59
2021/06/03 05:22:51;;;;;;;7.18;6.43;;;18.80;99.90;;;;;;5112696;28;20401;-59
2021/06/03 05:25:20;;;;;;;15.57;5.72;;;18.80;99.90;;;;;;5112637;28;20051;-60
2021/06/03 05:27:46;;;;;;;10.10;6.30;;;18.80;99.90;;;;;;5112729;28;20035;-60
2021/06/03 05:30:15;;;;;;;8.75;6.75;;;18.80;99.90;;;;;;5112673;28;20085;-60
2021/06/03 05:32:41;;;;;;;6.85;5.80;;;18.90;99.90;;;;;;5112735;28;20065;-61
2021/06/03 05:35:09;;;;;;;9.32;7.03;;;18.90;99.90;;;;;;5112494;28;20039;-59
2021/06/03 05:37:35;;;;;;;12.77;6.20;;;19.00;99.90;;;;;;5112728;28;20413;-59
2021/06/03 05:40:01;;;;;;;10.63;6.15;;;19.10;99.90;;;;;;5112538;28;20054;-59
2021/06/03 05:42:27;;;;;;;8.23;5.93;;;19.10;99.90;;;;;;5112540;28;20465;-59
2021/06/03 05:44:53;;;;;;;8.38;6.13;;;19.20;99.90;;;;;;5112494;28;20134;-60
2021/06/03 05:47:18;;;;;;;7.80;5.97;;;19.20;99.90;;;;;;5112278;28;20047;-59
2021/06/03 05:49:45;;;;;;;7.57;6.03;;;19.30;99.90;;;;;;5112340;28;20516;-60
2021/06/03 05:52:11;;;;;;;10.77;6.18;;;19.30;99.90;;;;;;5112031;28;20074;-60
2021/06/03 05:54:37;;;;;;;9.23;5.50;;;19.30;99.90;;;;;;5112474;28;20044;-60
2021/06/03 05:57:03;;;;;;;7.20;5.30;;;19.40;99.90;;;;;;5112732;28;20218;-60
2021/06/03 05:59:29;;;;;;;8.32;5.50;;;19.40;99.90;;;;;;5112326;28;20070;-60
2021/06/03 06:02:04;;;;;;;6.75;5.50;;;19.40;99.90;;;;;;5111954;28;20114;-60
2021/06/03 06:07:02;;;;;;;6.85;5.57;;;19.50;99.90;;;;;;5112192;28;20090;-59
2021/06/03 06:09:28;;;;;;;5.30;4.80;;;19.50;99.90;;;;;;5111986;28;20501;-60
2021/06/03 06:11:54;;;;;;;7.68;5.85;;;19.40;99.90;;;;;;5112166;28;20081;-60
2021/06/03 06:14:19;;;;;;;8.80;6.32;;;19.50;99.90;;;;;;5111864;28;20393;-60
2021/06/03 06:16:45;;;;;;;10.40;5.38;;;19.50;99.90;;;;;;5116123;28;20035;-60
2021/06/03 06:19:11;;;;;;;9.25;5.68;;;19.60;99.90;;;;;;5116201;28;20038;-60
2021/06/03 06:21:52;;;;;;;9.45;5.65;;;19.60;99.90;;;;;;5116366;28;20404;-60
2021/06/03 06:24:18;;;;;;;9.43;5.90;;;19.70;99.90;;;;;;5116610;28;20125;-60
2021/06/03 06:26:45;;;;;;;9.95;6.20;;;19.70;99.90;;;;;;5116070;28;20043;-60
2021/06/03 06:29:10;;;;;;;9.93;5.60;;;19.70;99.90;;;;;;5115952;28;20461;-59
2021/06/03 06:31:42;;;;;;;7.30;6.32;;;19.70;99.90;;;;;;5116131;28;20043;-60
2021/06/03 06:34:08;;;;;;;11.82;6.40;;;19.80;99.90;;;;;;5116227;28;20058;-61
2021/06/03 06:36:34;;;;;;;8.52;6.13;;;19.80;99.90;;;;;;5116339;28;20047;-60
2021/06/03 06:39:01;;;;;;;11.98;6.00;;;19.90;99.90;;;;;;5115781;28;20470;-60
2021/06/03 06:41:27;;;;;;;11.70;6.28;;;20.00;99.90;;;;;;5115871;28;20092;-61
2021/06/03 06:43:54;;;;;;;7.20;5.93;;;20.20;99.90;;;;;;5115899;28;20039;-60
2021/06/03 06:46:20;;;;;;;8.75;5.50;;;20.30;99.90;;;;;;5115656;28;20172;-60
2021/06/03 06:48:46;;;;;;;8.00;5.95;;;20.40;99.90;;;;;;5115668;28;20043;-60
2021/06/03 06:51:12;;;;;;;9.90;6.13;;;20.50;99.90;;;;;;5115699;28;20401;-60
2021/06/03 06:53:38;;;;;;;7.82;6.05;;;20.60;99.90;;;;;;5115633;28;20036;-60
2021/06/03 06:56:04;;;;;;;9.88;7.28;;;20.80;99.90;;;;;;5115449;28;20046;-61
2021/06/03 06:58:30;;;;;;;8.88;5.90;;;20.90;99.90;;;;;;5115473;28;20044;-59
2021/06/03 07:00:56;;;;;;;6.32;5.65;;;21.10;99.90;;;;;;5115918;28;20032;-60
2021/06/03 07:03:22;;;;;;;9.98;5.68;;;21.20;99.90;;;;;;5115640;28;20044;-60
2021/06/03 07:05:48;;;;;;;7.35;5.20;;;21.30;99.90;;;;;;5115622;28;20071;-60
2021/06/03 07:08:15;;;;;;;10.77;5.85;;;21.30;99.90;;;;;;5115478;28;20078;-60
2021/06/03 07:10:43;;;;;;;9.68;5.60;;;21.20;99.90;;;;;;5115565;28;20047;-61
2021/06/03 07:13:08;;;;;;;10.25;5.93;;;21.30;99.90;;;;;;5115580;28;20114;-61
2021/06/03 07:15:34;;;;;;;7.32;5.55;;;21.30;99.90;;;;;;5115113;28;20134;-60
2021/06/03 07:18:00;;;;;;;7.07;6.03;;;21.30;99.90;;;;;;5115269;28;20038;-56
2021/06/03 07:20:26;;;;;;;6.72;6.03;;;21.30;99.90;;;;;;5115237;28;20032;-56
2021/06/03 07:23:04;;;;;;;12.50;6.60;;;21.30;99.90;;;;;;5115185;28;20053;-57
2021/06/03 07:25:35;;;;;;;13.43;5.53;;;21.30;99.90;;;;;;5114673;28;20048;-57
2021/06/03 07:28:03;;;;;;;7.53;5.60;;;21.40;99.90;;;;;;5115161;28;20100;-57
2021/06/03 07:30:30;;;;;;;13.25;6.18;;;21.40;99.90;;;;;;5115319;28;20916;-56
2021/06/03 07:33:01;;;;;;;8.48;5.57;;;21.50;99.90;;;;;;5115049;28;20044;-57
2021/06/03 07:35:30;;;;;;;7.70;5.93;;;21.60;99.90;;;;;;5114916;28;20044;-57
2021/06/03 07:37:56;;;;;;;10.30;6.45;;;21.70;99.90;;;;;;5114915;28;20044;-57
2021/06/03 07:40:27;;;;;;;11.05;6.50;;;21.80;99.90;;;;;;5114803;28;20118;-56
2021/06/03 07:42:53;;;;;;;9.15;6.38;;;21.80;99.90;;;;;;5114830;28;20039;-56
2021/06/03 07:45:23;;;;;;;12.65;6.85;;;21.90;99.90;;;;;;5114690;28;20051;-57
2021/06/03 07:47:51;;;;;;;18.55;6.82;;;22.00;99.90;;;;;;5114143;28;20051;-57
2021/06/03 07:50:17;;;;;;;11.98;7.40;;;22.10;99.90;;;;;;5114666;28;20047;-57
2021/06/03 07:52:44;;;;;;;9.25;6.93;;;22.10;99.90;;;;;;5114347;28;20095;-57
2021/06/03 07:55:14;;;;;;;10.00;6.95;;;22.30;99.90;;;;;;5114292;28;20096;-57
2021/06/03 07:57:41;;;;;;;8.85;6.68;;;22.40;99.90;;;;;;5114383;28;20065;-57
2021/06/03 08:00:10;;;;;;;8.57;6.60;;;22.50;99.90;;;;;;5114434;28;20036;-57
2021/06/03 08:02:37;;;;;;;12.80;7.57;;;22.60;99.90;;;;;;5114328;28;20477;-57
2021/06/03 08:05:04;;;;;;;10.43;7.57;;;22.70;99.90;;;;;;5114257;28;20039;-57
2021/06/03 08:07:30;;;;;;;11.55;8.25;;;23.00;99.90;;;;;;5114162;28;20032;-57
2021/06/03 08:09:57;;;;;;;8.98;7.78;;;23.20;99.90;;;;;;5114443;28;20157;-57
2021/06/03 08:12:23;;;;;;;9.57;7.50;;;23.50;99.90;;;;;;5114067;28;20096;-57
2021/06/03 08:14:50;;;;;;;11.00;8.68;;;23.60;99.90;;;;;;5114185;28;20093;-57
2021/06/03 08:17:36;;;;;;;14.95;8.38;;;24.00;99.90;;;;;;5099022;28;20400;-56
2021/06/03 08:20:04;;;;;;;8.45;7.60;;;24.20;99.90;;;;;;5113843;28;20040;-57
2021/06/03 08:22:30;;;;;;;8.52;7.63;;;24.30;99.90;;;;;;5114084;28;20134;-57
2021/06/03 08:24:55;;;;;;;15.90;8.27;;;24.50;99.90;;;;;;5114036;28;20130;-57
2021/06/03 08:27:21;;;;;;;9.20;7.80;;;24.50;99.90;;;;;;5113588;28;20071;-56
2021/06/03 08:29:47;;;;;;;9.98;8.02;;;24.80;99.90;;;;;;5095040;28;20055;-57
2021/06/03 08:32:13;;;;;;;9.43;8.25;;;25.00;99.90;;;;;;5113698;28;20050;-57
2021/06/03 08:34:54;;;;;;;11.20;7.70;;;25.30;99.90;;;;;;5114058;28;20066;-57
2021/06/03 08:37:42;;;;;;;8.63;7.72;;;25.40;99.90;;;;;;5097581;28;20048;-57
2021/06/03 08:40:09;;;;;;;13.32;8.00;;;25.80;99.90;;;;;;5095400;28;20133;-57
2021/06/03 08:42:35;;;;;;;8.70;7.15;;;25.90;99.90;;;;;;5113627;28;20071;-57
2021/06/03 08:45:02;;;;;;;7.65;6.82;;;26.00;99.90;;;;;;5113490;28;20044;-56
2021/06/03 08:47:29;;;;;;;9.20;7.38;;;26.20;99.90;;;;;;5113463;28;20047;-57
2021/06/03 08:49:56;;;;;;;10.73;8.05;;;26.20;99.90;;;;;;5113649;28;20435;-57
2021/06/03 08:52:22;;;;;;;8.73;7.07;;;26.20;99.90;;;;;;5113108;28;20055;-57
2021/06/03 08:54:53;;;;;;;10.13;8.05;;;26.20;99.90;;;;;;5113259;28;20043;-57
2021/06/03 08:57:19;;;;;;;12.20;8.20;;;26.40;99.90;;;;;;5113481;28;20512;-57
2021/06/03 08:59:45;;;;;;;9.43;7.93;;;26.60;99.90;;;;;;5113364;28;20381;-57
2021/06/03 09:02:11;;;;;;;12.23;8.32;;;26.90;99.90;;;;;;5113155;28;20039;-57
2021/06/03 09:04:36;;;;;;;8.23;7.25;;;27.10;99.90;;;;;;5113215;28;20048;-57
2021/06/03 09:07:02;;;;;;;10.20;7.88;;;27.40;99.90;;;;;;5113059;28;20373;-56
2021/06/03 09:09:30;;;;;;;10.23;7.10;;;27.40;99.80;;;;;;5112962;28;20080;-57
2021/06/03 09:12:13;;;;;;;7.83;7.07;;;27.60;99.80;;;;;;5112996;28;20404;-57
2021/06/03 09:14:38;;;;;;;12.02;7.53;;;27.60;99.60;;;;;;5112840;28;20512;-57
2021/06/03 09:17:04;;;;;;;12.50;7.32;;;27.70;99.90;;;;;;5112840;28;20063;-57
2021/06/03 09:19:31;;;;;;;7.82;6.53;;;27.90;99.70;;;;;;5112601;28;20481;-57
2021/06/03 09:21:59;;;;;;;9.18;8.18;;;28.20;99.10;;;;;;5112774;28;20066;-57
2021/06/03 09:24:31;;;;;;;10.00;7.20;;;28.50;98.80;;;;;;5112765;28;20071;-57
2021/06/03 09:27:00;;;;;;;11.38;8.60;;;28.60;98.70;;;;;;5112590;28;20085;-57
2021/06/03 09:29:38;;;;;;;10.85;7.03;;;28.60;97.20;;;;;;5112772;28;20040;-57
2021/06/03 09:32:12;;;;;;;10.05;8.27;;;28.90;98.00;;;;;;5112416;28;20050;-57
2021/06/03 09:34:40;;;;;;;9.80;7.88;;;28.40;97.10;;;;;;5112434;28;20040;-57
2021/06/03 09:37:08;;;;;;;9.23;7.25;;;28.60;98.20;;;;;;5112412;28;20050;-57
2021/06/03 09:39:36;;;;;;;8.23;7.00;;;28.70;97.30;;;;;;5112695;28;20063;-57
2021/06/03 09:42:14;;;;;;;7.38;6.68;;;28.50;96.80;;;;;;5112582;28;20040;-57
2021/06/03 09:44:55;;;;;;;8.05;7.25;;;28.60;98.10;;;;;;5112410;28;20052;-57
2021/06/03 09:47:25;;;;;;;9.60;6.82;;;28.40;95.80;;;;;;5112539;28;20538;-57
2021/06/03 09:49:54;;;;;;;7.32;6.63;;;28.50;97.70;;;;;;5112290;28;20092;-57
2021/06/03 09:52:34;;;;;;;9.73;7.75;;;28.40;97.20;;;;;;5112197;28;20091;-57
2021/06/03 09:55:04;;;;;;;9.02;7.25;;;28.30;97.30;;;;;;5112252;28;20408;-57
2021/06/03 09:57:36;;;;;;;12.65;6.53;;;28.10;97.10;;;;;;5094043;28;20079;-57
2021/06/03 10:00:20;;;;;;;8.98;7.20;;;28.10;97.70;;;;;;5112176;28;20044;-57
2021/06/03 10:02:47;;;;;;;7.70;6.97;;;28.00;97.70;;;;;;5112623;28;20047;-57
2021/06/03 10:05:22;;;;;;;8.93;7.78;;;28.20;98.30;;;;;;5112288;28;20047;-57
2021/06/03 10:07:56;;;;;;;9.38;7.65;;;28.20;98.00;;;;;;5112234;28;20035;-57
2021/06/03 10:10:22;;;;;;;8.48;7.18;;;28.10;98.90;;;;;;5112086;28;20035;-57
2021/06/03 10:12:50;;;;;;;8.40;6.97;;;28.30;98.00;;;;;;5112059;28;20533;-57
2021/06/03 10:15:33;;;;;;;8.52;6.60;;;28.70;98.20;;;;;;5112105;28;20079;-57
2021/06/03 10:18:04;;;;;;;8.02;6.43;;;29.20;98.30;;;;;;5112085;28;20061;-57
2021/06/03 10:20:36;;;;;;;8.27;5.88;;;29.40;96.90;;;;;;5111965;28;20039;-57
2021/06/03 10:23:04;;;;;;;11.70;6.07;;;29.60;96.80;;;;;;5112188;28;20521;-57
2021/06/03 10:25:32;;;;;;;9.98;5.95;;;29.60;96.40;;;;;;5112177;28;20051;-57
2021/06/03 10:28:00;;;;;;;8.20;5.55;;;29.80;96.80;;;;;;5112278;28;20054;-57
2021/06/03 10:30:27;;;;;;;7.43;6.03;;;30.10;95.80;;;;;;5093651;28;20047;-57
2021/06/03 10:32:57;;;;;;;6.20;5.37;;;30.10;95.60;;;;;;5111842;28;20455;-57
2021/06/03 10:35:28;;;;;;;7.35;4.95;;;30.50;95.30;;;;;;5111592;28;20309;-57
2021/06/03 10:37:55;;;;;;;6.35;4.03;;;31.50;94.40;;;;;;5112042;28;20040;-57
2021/06/03 10:40:25;;;;;;;12.45;4.00;;;33.00;93.40;;;;;;5107588;28;20041;-58
2021/06/03 10:42:52;;;;;;;6.80;4.63;;;33.90;93.00;;;;;;5086006;28;20458;-57
2021/06/03 10:45:21;;;;;;;6.38;4.18;;;34.70;91.20;;;;;;5091434;28;20477;-57
2021/06/03 10:47:47;;;;;;;7.18;4.07;;;35.10;88.00;;;;;;5091446;28;20132;-58
2021/06/03 10:50:49;;;;;;;17.10;5.20;;;35.90;88.70;;;;;;5082366;28;20493;-58
2021/06/03 10:53:18;;;;;;;12.20;5.90;;;36.30;83.40;;;;;;5000952;28;20043;-58
2021/06/03 10:55:53;;;;;;;5.75;4.97;;;36.30;83.40;;;;;;5011072;28;20411;-58
2021/06/03 10:58:30;;;;;;;6.43;4.35;;;36.40;82.60;;;;;;5008933;28;20042;-58
2021/06/03 11:01:00;;;;;;;6.47;3.65;;;36.20;78.70;;;;;;5030990;28;20123;-58
2021/06/03 11:03:59;;;;;;;7.10;4.40;;;36.70;80.40;;;;;;5036231;28;20041;-57
2021/06/03 11:06:27;;;;;;;13.23;4.00;;;36.90;75.70;;;;;;5013170;28;20056;-58
2021/06/03 11:08:56;;;;;;;7.20;4.32;;;36.70;77.30;;;;;;5012857;28;20292;-58
2021/06/03 11:11:35;;;;;;;6.50;3.92;;;36.20;76.30;;;;;;5012215;28;20038;-58
2021/06/03 11:14:02;;;;;;;5.55;3.70;;;35.70;77.80;;;;;;5011931;28;20046;-58
2021/06/03 11:16:38;;;;;;;9.82;5.57;;;35.20;79.10;;;;;;5012159;28;20046;-57
2021/06/03 11:19:07;;;;;;;6.88;4.72;;;34.30;78.50;;;;;;5012435;28;20120;-58
2021/06/03 11:21:33;;;;;;;6.50;4.63;;;34.00;79.50;;;;;;5012542;28;20042;-57
2021/06/03 11:24:05;;;;;;;6.95;4.15;;;33.80;80.60;;;;;;5011468;28;20054;-57
2021/06/03 11:26:43;;;;;;;7.93;4.80;;;33.70;80.20;;;;;;5009436;28;20096;-57
2021/06/03 11:29:28;;;;;;;4.78;3.58;;;33.10;81.80;;;;;;5024545;28;20056;-57
2021/06/03 11:32:03;;;;;;;6.40;3.72;;;33.30;81.00;;;;;;5052388;28;20044;-57
2021/06/03 11:34:40;;;;;;;8.75;4.40;;;32.90;81.90;;;;;;5052453;28;20041;-57
2021/06/03 11:37:22;;;;;;;5.68;3.75;;;32.80;80.80;;;;;;5052378;28;20127;-57
2021/06/03 11:40:00;;;;;;;5.55;4.50;;;32.50;82.60;;;;;;5052276;28;20040;-57
2021/06/03 11:42:32;;;;;;;6.17;4.33;;;32.10;83.40;;;;;;5066958;28;20086;-57
2021/06/03 11:45:22;;;;;;;7.68;4.25;;;31.90;83.50;;;;;;5106136;28;20297;-57
2021/06/03 11:47:48;;;;;;;5.63;4.25;;;31.70;84.00;;;;;;5102582;28;20036;-57
2021/06/03 11:50:16;;;;;;;14.70;4.18;;;32.10;84.20;;;;;;5104879;28;20054;-57
2021/06/03 11:52:59;;;;;;;5.20;3.55;;;32.30;83.90;;;;;;5099891;28;20059;-57
2021/06/03 11:55:44;;;;;;;8.60;3.80;;;32.40;84.20;;;;;;5094177;28;20178;-57
2021/06/03 11:58:25;;;;;;;5.95;4.28;;;32.00;85.30;;;;;;5094434;28;20055;-57
2021/06/03 12:00:57;;;;;;;4.95;3.95;;;31.40;85.80;;;;;;5094161;28;20050;-57
2021/06/03 12:03:28;;;;;;;4.72;3.50;;;31.10;85.30;;;;;;5094443;28;20044;-57
2021/06/03 12:05:56;;;;;;;7.30;3.55;;;31.20;85.30;;;;;;5093969;28;20039;-57
2021/06/03 12:08:30;;;;;;;;;;;31.20;85.10;;;;;;5094660;28;20046;-57
2021/06/03 12:10:56;;;;;;;4.53;2.22;;;32.20;86.50;;;;;;5094053;28;19959;-57
2021/06/03 12:13:21;;;;;;;5.82;2.90;;;31.90;84.30;;;;;;5093792;28;20064;-57
2021/06/03 12:15:47;;;;;;;4.35;2.40;;;32.20;84.00;;;;;;5094107;28;20047;-57
2021/06/03 12:18:13;;;;;;;6.88;3.00;;;32.40;84.40;;;;;;5094352;28;20490;-57
2021/06/03 12:20:40;;;;;;;5.10;2.65;;;32.40;83.20;;;;;;5093958;28;20052;-57
2021/06/03 12:23:08;;;;;;;5.82;2.90;;;32.30;82.60;;;;;;5094075;28;20113;-57
2021/06/03 12:25:42;;;;;;;4.80;2.90;;;32.40;82.20;;;;;;5093801;28;20050;-57
2021/06/03 12:28:09;;;;;;;2.80;2.30;;;32.70;81.10;;;;;;5093596;28;20474;-57
2021/06/03 12:30:38;;;;;;;6.88;2.90;;;32.80;81.90;;;;;;5093850;28;20113;-57
2021/06/03 12:33:26;;;;;;;8.27;2.50;;;33.10;80.10;;;;;;5093539;28;20059;-57
2021/06/03 12:35:54;;;;;;;4.63;2.53;;;33.30;80.00;;;;;;5092975;28;20043;-63
2021/06/03 12:38:35;;;;;;;3.45;2.28;;;33.20;79.30;;;;;;5093595;28;20054;-63
2021/06/03 12:41:26;;;;;;;6.43;1.95;;;32.80;80.80;;;;;;5096029;28;20035;-62
2021/06/03 12:44:05;;;;;;;5.63;2.15;;;32.70;81.00;;;;;;5094710;28;20131;-64
2021/06/03 12:47:00;;;;;;;3.50;2.03;;;32.70;80.10;;;;;;5103999;28;20036;-63
2021/06/03 12:49:29;;;;;;;5.35;2.30;;;32.50;80.70;;;;;;5098324;28;20044;-63
2021/06/03 12:52:02;;;;;;;2.60;2.30;;;32.30;78.50;;;;;;5104136;28;20067;-62
2021/06/03 12:54:37;;;;;;;3.67;2.05;;;32.10;78.10;;;;;;5102554;28;20040;-63